UPSVAC Airport Information Service

Guadalajara International Airport

ICAO: MMGL Country: Mexico
Latitude: 20.5218 Longitude: -103.311
Latest Arrival : UPS97 (KSAT-MMGL) Latest Departure : UPS94 (MMGL-KSDF)


WX CaptureLIVE
Data provided by noaa.gov | Fetched at 14:18:17

METAR : MMGL 141352Z 00000KT 7SM FEW030 BKN080 BKN300 17/01 A3020 RMK 8/538 HZY

TAF : MMGL 141059Z 1412/1518 24005KT P6SM SKC TX32/1421Z TN13/1412Z FM141800 24010KT P6SM SCT250 FM150300 24005KT P6SM SKC FM151700 24010KT P6SM SCT25


Runway Data for MMGL
Data provided by openaviationdata.com

Runway ID Mag Var Hdg Length Elevation Surface ILS Freq ILS Id ILS Slope
2 8 22° 5998 ft 5015 ft Asphalt -- -- --
10 8 106° 13134 ft 5015 ft Asphalt 110.1 IAIG 3
20 8 202° 5998 ft 5015 ft Asphalt -- -- --
28 8 286° 13134 ft 5015 ft Asphalt 111.3 IGDL 2

Guadalajara International Airport, Mexico
Use only for reference purposes



Not for navigational purposes.